createdAt,value
2022-09-23T00:00:01.939Z,12.3
2022-09-23T00:01:04.638Z,12.2
2022-09-23T00:02:08.510Z,12.2
2022-09-23T00:03:11.762Z,12.2
2022-09-23T00:04:15.392Z,12.2
2022-09-23T00:05:18.205Z,12.2
2022-09-23T00:06:21.189Z,12.2
2022-09-23T00:07:24.096Z,12.2
2022-09-23T00:08:27.089Z,12.2
2022-09-23T00:09:30.614Z,12.1
2022-09-23T00:10:34.049Z,12.1
2022-09-23T00:11:37.466Z,12.1
2022-09-23T00:12:40.003Z,12.1
2022-09-23T00:13:42.602Z,12.1
2022-09-23T00:14:45.776Z,12.1
2022-09-23T00:15:49.503Z,12
2022-09-23T00:16:51.890Z,12
2022-09-23T00:17:56.176Z,12
2022-09-23T00:18:59.005Z,12
2022-09-23T00:20:03.114Z,11.9
2022-09-23T00:21:06.550Z,11.9
2022-09-23T00:22:09.435Z,11.9
2022-09-23T00:23:13.173Z,11.9
2022-09-23T00:24:15.781Z,11.9
2022-09-23T00:25:19.500Z,11.9
2022-09-23T00:26:22.010Z,11.9
2022-09-23T00:27:25.483Z,11.9
2022-09-23T00:28:28.656Z,11.8
2022-09-23T00:29:31.725Z,11.8
2022-09-23T00:30:34.649Z,11.8
2022-09-23T00:31:38.015Z,11.8
2022-09-23T00:32:41.125Z,11.8
2022-09-23T00:33:43.949Z,11.8
2022-09-23T00:34:46.506Z,11.8
2022-09-23T00:35:50.370Z,11.8
2022-09-23T00:36:53.119Z,11.8
2022-09-23T00:37:56.018Z,11.8
2022-09-23T00:38:59.579Z,11.8
2022-09-23T00:40:03.257Z,11.8
2022-09-23T00:41:06.162Z,11.8
2022-09-23T00:42:09.559Z,11.8
2022-09-23T00:43:12.353Z,11.8
2022-09-23T00:44:15.432Z,11.7
2022-09-23T00:45:19.155Z,11.7
2022-09-23T00:46:22.444Z,11.7
2022-09-23T00:47:26.433Z,11.7
2022-09-23T00:48:29.705Z,11.7
2022-09-23T00:49:32.796Z,11.7
2022-09-23T00:50:35.394Z,11.7
2022-09-23T00:51:39.277Z,11.7
2022-09-23T00:52:43.020Z,11.7
2022-09-23T00:53:45.892Z,11.7
2022-09-23T00:54:48.423Z,11.6
2022-09-23T00:55:51.577Z,11.7
2022-09-23T00:56:54.675Z,11.6
2022-09-23T00:57:57.466Z,11.6
2022-09-23T00:59:00.740Z,11.6
2022-09-23T01:00:03.339Z,11.6
2022-09-23T01:01:06.803Z,11.6
2022-09-23T01:02:09.368Z,11.6
2022-09-23T01:03:12.630Z,11.5
2022-09-23T01:04:16.088Z,11.5
2022-09-23T01:05:18.918Z,11.5
2022-09-23T01:06:22.270Z,11.5
2022-09-23T01:07:25.828Z,11.5
2022-09-23T01:08:28.930Z,11.5
2022-09-23T01:09:31.853Z,11.5
2022-09-23T01:10:34.725Z,11.5
2022-09-23T01:11:37.543Z,11.5
2022-09-23T01:12:40.722Z,11.5
2022-09-23T01:13:44.077Z,11.4
2022-09-23T01:14:46.672Z,11.4
2022-09-23T01:15:49.663Z,11.4
2022-09-23T01:16:53.045Z,11.4
2022-09-23T01:17:56.095Z,11.4
2022-09-23T01:18:59.235Z,11.4
2022-09-23T01:20:02.024Z,11.4
2022-09-23T01:21:05.466Z,11.4
2022-09-23T01:22:08.837Z,11.4
2022-09-23T01:23:12.784Z,11.4
2022-09-23T01:24:15.667Z,11.4
2022-09-23T01:25:18.728Z,11.4
2022-09-23T01:26:21.685Z,11.4
2022-09-23T01:27:24.792Z,11.4
2022-09-23T01:28:27.503Z,11.4
2022-09-23T01:29:30.193Z,11.4
2022-09-23T01:30:33.382Z,11.4
2022-09-23T01:31:36.724Z,11.4
2022-09-23T01:32:39.524Z,11.4
2022-09-23T01:33:42.248Z,11.4
2022-09-23T01:34:45.122Z,11.3
2022-09-23T01:35:47.853Z,11.4
2022-09-23T01:36:50.660Z,11.3
2022-09-23T01:37:53.457Z,11.3
2022-09-23T01:38:57.361Z,11.3
2022-09-23T01:40:01.142Z,11.3
2022-09-23T01:41:04.470Z,11.3
2022-09-23T01:42:07.262Z,11.3
2022-09-23T01:43:10.132Z,11.3
2022-09-23T01:44:13.200Z,11.3
2022-09-23T01:45:15.991Z,11.3
2022-09-23T01:46:19.144Z,11.3
2022-09-23T01:47:22.018Z,11.3
2022-09-23T01:48:25.017Z,11.3
2022-09-23T01:49:28.054Z,11.2
2022-09-23T01:50:30.926Z,11.2
2022-09-23T01:51:33.917Z,11.2
2022-09-23T01:52:37.013Z,11.2
2022-09-23T01:53:40.483Z,11.2
2022-09-23T01:54:44.372Z,11.2
2022-09-23T01:55:47.661Z,11.2
2022-09-23T01:56:50.766Z,11.2
2022-09-23T01:57:54.112Z,11.2
2022-09-23T01:58:57.192Z,11.2
2022-09-23T01:59:59.994Z,11.2
2022-09-23T02:01:02.534Z,11.2
2022-09-23T02:02:06.292Z,11.1
2022-09-23T02:03:10.325Z,11.1
2022-09-23T02:04:13.761Z,11.1
2022-09-23T02:05:16.982Z,11.1
2022-09-23T02:06:20.175Z,11.1
2022-09-23T02:07:22.971Z,11.1
2022-09-23T02:08:26.063Z,11.1
2022-09-23T02:09:29.407Z,11.1
2022-09-23T02:10:33.340Z,11.1
2022-09-23T02:11:36.847Z,11.1
2022-09-23T02:12:39.917Z,11
2022-09-23T02:13:42.886Z,11.1
2022-09-23T02:14:45.955Z,11.1
2022-09-23T02:15:49.038Z,11
2022-09-23T02:16:52.960Z,11.1
2022-09-23T02:17:56.914Z,11
2022-09-23T02:19:00.003Z,11.1
2022-09-23T02:20:03.186Z,11
2022-09-23T02:21:05.969Z,11
2022-09-23T02:22:08.754Z,11
2022-09-23T02:23:11.827Z,11
2022-09-23T02:24:14.633Z,11
2022-09-23T02:25:18.092Z,11
2022-09-23T02:26:21.722Z,11
2022-09-23T02:27:25.113Z,11
2022-09-23T02:28:28.463Z,11
2022-09-23T02:29:31.542Z,11
2022-09-23T02:30:34.139Z,11
2022-09-23T02:31:37.455Z,11
2022-09-23T02:32:41.186Z,11
2022-09-23T02:33:44.061Z,11
2022-09-23T02:34:47.517Z,10.9
2022-09-23T02:35:50.582Z,10.9
2022-09-23T02:36:53.646Z,10.9
2022-09-23T02:37:56.630Z,10.9
2022-09-23T02:38:59.897Z,10.9
2022-09-23T02:40:02.525Z,10.9
2022-09-23T02:41:05.500Z,10.9
2022-09-23T02:42:09.628Z,10.9
2022-09-23T02:43:13.004Z,10.9
2022-09-23T02:44:16.345Z,10.9
2022-09-23T02:45:19.486Z,10.9
2022-09-23T02:46:23.233Z,10.9
2022-09-23T02:47:26.380Z,10.8
2022-09-23T02:48:29.162Z,10.9
2022-09-23T02:49:32.226Z,10.9
2022-09-23T02:50:34.913Z,10.8
2022-09-23T02:51:37.978Z,10.9
2022-09-23T02:52:41.085Z,10.8
2022-09-23T02:53:43.964Z,10.8
2022-09-23T02:54:47.140Z,10.8
2022-09-23T02:55:50.084Z,10.8
2022-09-23T02:56:53.256Z,10.8
2022-09-23T02:57:57.348Z,10.8
2022-09-23T02:59:01.136Z,10.7
2022-09-23T03:00:04.216Z,10.7
2022-09-23T03:01:07.357Z,10.7
2022-09-23T03:02:11.186Z,10.7
2022-09-23T03:03:14.463Z,10.7
2022-09-23T03:04:17.532Z,10.7
2022-09-23T03:05:20.414Z,10.7
2022-09-23T03:06:23.793Z,10.7
2022-09-23T03:07:27.256Z,10.7
2022-09-23T03:08:30.414Z,10.7
2022-09-23T03:09:33.021Z,10.7
2022-09-23T03:10:35.892Z,10.7
2022-09-23T03:11:39.911Z,10.7
2022-09-23T03:12:43.076Z,10.7
2022-09-23T03:13:46.381Z,10.7
2022-09-23T03:14:48.908Z,10.7
2022-09-23T03:15:51.982Z,10.7
2022-09-23T03:16:55.090Z,10.7
2022-09-23T03:17:57.728Z,10.7
2022-09-23T03:19:00.823Z,10.7
2022-09-23T03:20:04.246Z,10.6
2022-09-23T03:21:07.115Z,10.6
2022-09-23T03:22:10.017Z,10.7
2022-09-23T03:23:12.693Z,10.6
2022-09-23T03:24:15.966Z,10.6
2022-09-23T03:25:19.023Z,10.6
2022-09-23T03:26:22.017Z,10.6
2022-09-23T03:27:25.477Z,10.6
2022-09-23T03:28:29.004Z,10.6
2022-09-23T03:29:32.827Z,10.6
2022-09-23T03:30:36.497Z,10.6
2022-09-23T03:31:39.313Z,10.6
2022-09-23T03:32:43.132Z,10.6
2022-09-23T03:33:46.379Z,10.6
2022-09-23T03:34:49.169Z,10.6
2022-09-23T03:35:52.594Z,10.6
2022-09-23T03:36:55.579Z,10.6
2022-09-23T03:37:59.284Z,10.5
2022-09-23T03:39:02.289Z,10.5
2022-09-23T03:40:05.807Z,10.5
2022-09-23T03:41:09.022Z,10.5
2022-09-23T03:42:11.548Z,10.5
2022-09-23T03:43:14.574Z,10.5
2022-09-23T03:44:17.122Z,10.5
2022-09-23T03:45:21.330Z,10.5
2022-09-23T03:46:24.479Z,10.5
2022-09-23T03:47:28.099Z,10.5
2022-09-23T03:48:31.434Z,10.5
2022-09-23T03:49:34.569Z,10.5
2022-09-23T03:50:37.435Z,10.5
2022-09-23T03:51:45.174Z,10.5
2022-09-23T03:52:47.999Z,10.5
2022-09-23T03:53:50.591Z,10.5
2022-09-23T03:54:54.033Z,10.5
2022-09-23T03:55:57.754Z,10.5
2022-09-23T03:57:00.654Z,10.4
2022-09-23T03:58:03.457Z,10.4
2022-09-23T03:59:06.611Z,10.4
2022-09-23T04:00:10.307Z,10.4
2022-09-23T04:01:14.871Z,10.4
2022-09-23T04:02:18.299Z,10.4
2022-09-23T04:03:22.099Z,10.4
2022-09-23T04:04:25.268Z,10.4
2022-09-23T04:05:28.264Z,10.4
2022-09-23T04:06:31.117Z,10.4
2022-09-23T04:07:34.821Z,10.4
2022-09-23T04:08:38.543Z,10.4
2022-09-23T04:09:41.606Z,10.4
2022-09-23T04:10:48.405Z,10.4
2022-09-23T04:11:58.172Z,10.4
2022-09-23T04:13:01.597Z,10.4
2022-09-23T04:14:04.749Z,10.4
2022-09-23T04:15:08.224Z,10.4
2022-09-23T04:16:11.236Z,10.4
2022-09-23T04:17:15.280Z,10.4
2022-09-23T04:18:18.363Z,10.4
2022-09-23T04:19:21.505Z,10.4
2022-09-23T04:20:24.103Z,10.4
2022-09-23T04:21:26.892Z,10.4
2022-09-23T04:22:29.483Z,10.4
2022-09-23T04:23:31.081Z,10.4
2022-09-23T04:24:33.663Z,10.4
2022-09-23T04:25:36.735Z,10.4
2022-09-23T04:26:39.401Z,10.4
2022-09-23T04:27:42.497Z,10.4
2022-09-23T04:28:45.654Z,10.4
2022-09-23T04:29:48.794Z,10.4
2022-09-23T04:30:51.884Z,10.4
2022-09-23T04:31:54.845Z,10.4
2022-09-23T04:32:59.028Z,10.4
2022-09-23T04:34:02.219Z,10.4
2022-09-23T04:35:05.019Z,10.4
2022-09-23T04:36:08.543Z,10.4
2022-09-23T04:37:11.435Z,10.4
2022-09-23T04:38:14.587Z,10.4
2022-09-23T04:39:17.537Z,10.4
2022-09-23T04:40:20.752Z,10.4
2022-09-23T04:41:23.899Z,10.4
2022-09-23T04:42:26.613Z,10.4
2022-09-23T04:43:30.162Z,10.4
2022-09-23T04:44:33.315Z,10.4
2022-09-23T04:45:36.121Z,10.4
2022-09-23T04:46:39.595Z,10.4
2022-09-23T04:47:43.037Z,10.4
2022-09-23T04:48:46.860Z,10.4
2022-09-23T04:49:50.618Z,10.4
2022-09-23T04:50:53.842Z,10.4
2022-09-23T04:51:56.984Z,10.4
2022-09-23T04:53:00.136Z,10.4
2022-09-23T04:54:03.294Z,10.4
2022-09-23T04:55:11.915Z,10.4
2022-09-23T04:56:15.355Z,10.4
2022-09-23T04:57:18.694Z,10.4
2022-09-23T04:58:21.209Z,10.4
2022-09-23T04:59:24.194Z,10.4
2022-09-23T05:00:27.465Z,10.4
2022-09-23T05:01:30.838Z,10.4
2022-09-23T05:02:34.263Z,10.4
2022-09-23T05:03:36.947Z,10.4
2022-09-23T05:04:40.581Z,10.4
2022-09-23T05:05:43.582Z,10.4
2022-09-23T05:06:46.364Z,10.5
2022-09-23T05:07:49.818Z,10.4
2022-09-23T05:08:52.797Z,10.4
2022-09-23T05:09:55.880Z,10.4
2022-09-23T05:10:58.717Z,10.5
2022-09-23T05:12:02.066Z,10.5
2022-09-23T05:13:04.651Z,10.5
2022-09-23T05:14:07.790Z,10.5
2022-09-23T05:15:11.529Z,10.5
2022-09-23T05:16:14.699Z,10.5
2022-09-23T05:17:18.136Z,10.5
2022-09-23T05:18:21.664Z,10.5
2022-09-23T05:19:25.034Z,10.6
2022-09-23T05:20:29.036Z,10.5
2022-09-23T05:21:32.777Z,10.5
2022-09-23T05:22:35.577Z,10.6
2022-09-23T05:23:38.382Z,10.6
2022-09-23T05:24:41.546Z,10.6
2022-09-23T05:25:44.419Z,10.6
2022-09-23T05:26:48.112Z,10.6
2022-09-23T05:27:51.058Z,10.6
2022-09-23T05:28:53.980Z,10.7
2022-09-23T05:29:57.427Z,10.7
2022-09-23T05:31:00.707Z,10.7
2022-09-23T05:32:04.507Z,10.7
2022-09-23T05:33:07.353Z,10.7
2022-09-23T05:34:10.466Z,10.7
2022-09-23T05:35:13.600Z,10.7
2022-09-23T05:36:17.603Z,10.8
2022-09-23T05:37:20.501Z,10.8
2022-09-23T05:38:22.734Z,10.8
2022-09-23T05:39:25.884Z,10.8
2022-09-23T05:40:29.014Z,10.8
2022-09-23T05:41:31.893Z,10.9
2022-09-23T05:42:34.609Z,10.9
2022-09-23T05:43:37.712Z,10.9
2022-09-23T05:44:41.149Z,10.9
2022-09-23T05:45:43.462Z,10.9
2022-09-23T05:46:46.786Z,10.9
2022-09-23T05:47:49.536Z,10.9
2022-09-23T05:48:52.663Z,10.9
2022-09-23T05:50:01.386Z,11
2022-09-23T05:51:04.652Z,11
2022-09-23T05:52:08.277Z,10.9
2022-09-23T05:53:11.790Z,10.9
2022-09-23T05:54:14.869Z,11
2022-09-23T05:55:17.674Z,11
2022-09-23T05:56:20.394Z,11
2022-09-23T05:57:23.193Z,11
2022-09-23T05:58:26.727Z,11
2022-09-23T05:59:29.889Z,11
2022-09-23T06:00:33.349Z,11
2022-09-23T06:01:37.081Z,11.1
2022-09-23T06:02:40.116Z,11.1
2022-09-23T06:03:43.235Z,11.1
2022-09-23T06:04:46.611Z,11.1
2022-09-23T06:05:49.559Z,11.1
2022-09-23T06:06:52.640Z,11.1
2022-09-23T06:07:56.599Z,11.1
2022-09-23T06:09:00.330Z,11.2
2022-09-23T06:10:03.646Z,11.2
2022-09-23T06:11:06.508Z,11.2
2022-09-23T06:12:09.413Z,11.3
2022-09-23T06:13:12.003Z,11.3
2022-09-23T06:14:15.968Z,11.3
2022-09-23T06:15:18.933Z,11.3
2022-09-23T06:16:22.304Z,11.4
2022-09-23T06:17:25.415Z,11.4
2022-09-23T06:18:28.782Z,11.4
2022-09-23T06:19:31.492Z,11.4
2022-09-23T06:20:34.286Z,11.5
2022-09-23T06:21:37.739Z,11.4
2022-09-23T06:22:41.273Z,11.4
2022-09-23T06:23:45.364Z,11.5
2022-09-23T06:24:48.442Z,11.5
2022-09-23T06:25:51.226Z,11.5
2022-09-23T06:26:54.848Z,11.5
2022-09-23T06:27:57.940Z,11.5
2022-09-23T06:29:00.933Z,11.5
2022-09-23T06:30:03.810Z,11.5
2022-09-23T06:31:14.319Z,11.6
2022-09-23T06:32:17.937Z,11.6
2022-09-23T06:33:37.657Z,11.6
2022-09-23T06:34:52.671Z,11.6
2022-09-23T06:36:00.661Z,11.6
2022-09-23T06:37:21.108Z,11.7
2022-09-23T06:38:24.225Z,11.6
2022-09-23T06:39:28.350Z,11.6
2022-09-23T06:40:31.421Z,11.7
2022-09-23T06:41:35.011Z,11.7
2022-09-23T06:42:37.836Z,11.7
2022-09-23T06:43:41.358Z,11.7
2022-09-23T06:44:44.731Z,11.7
2022-09-23T06:45:48.069Z,11.7
2022-09-23T06:46:51.758Z,11.8
2022-09-23T06:47:54.699Z,11.8
2022-09-23T06:48:57.852Z,11.8
2022-09-23T06:50:01.328Z,11.8
2022-09-23T06:51:03.566Z,11.8
2022-09-23T06:52:05.802Z,11.8
2022-09-23T06:53:08.484Z,11.8
2022-09-23T06:54:11.945Z,11.8
2022-09-23T06:55:15.482Z,11.9
2022-09-23T06:56:18.285Z,11.9
2022-09-23T06:57:21.389Z,11.9
2022-09-23T06:58:24.816Z,11.9
2022-09-23T06:59:27.911Z,11.9
2022-09-23T07:00:31.168Z,11.9
2022-09-23T07:01:34.721Z,11.9
2022-09-23T07:02:39.639Z,12
2022-09-23T07:03:43.405Z,12
2022-09-23T07:04:47.056Z,12
2022-09-23T07:05:50.307Z,12
2022-09-23T07:06:53.096Z,12
2022-09-23T07:07:56.188Z,12
2022-09-23T07:08:59.979Z,12
2022-09-23T07:10:03.279Z,12.1
2022-09-23T07:11:07.527Z,12.1
2022-09-23T07:12:11.001Z,12.1
2022-09-23T07:13:17.301Z,12.1
2022-09-23T07:14:21.011Z,12.1
2022-09-23T07:15:23.552Z,12.1
2022-09-23T07:16:27.001Z,12.2
2022-09-23T07:17:30.485Z,12.2
2022-09-23T07:18:37.858Z,12.2
2022-09-23T07:19:40.839Z,12.2
2022-09-23T07:20:43.529Z,12.3
2022-09-23T07:21:46.403Z,12.3
2022-09-23T07:22:49.195Z,12.3
2022-09-23T07:23:52.579Z,12.3
2022-09-23T07:24:55.957Z,12.4
2022-09-23T07:25:59.208Z,12.4
2022-09-23T07:27:03.434Z,12.4
2022-09-23T07:28:06.120Z,12.5
2022-09-23T07:29:09.467Z,12.5
2022-09-23T07:30:25.817Z,12.5
2022-09-23T07:31:40.796Z,12.6
2022-09-23T07:32:49.914Z,12.6
2022-09-23T07:33:53.213Z,12.6
2022-09-23T07:34:56.008Z,12.6
2022-09-23T07:35:58.804Z,12.6
2022-09-23T07:37:01.788Z,12.7
2022-09-23T07:38:04.933Z,12.7
2022-09-23T07:39:08.514Z,12.7
2022-09-23T07:40:12.640Z,12.7
2022-09-23T07:41:16.408Z,12.8
2022-09-23T07:42:20.307Z,12.8
2022-09-23T07:43:24.129Z,12.8
2022-09-23T07:44:27.399Z,12.8
2022-09-23T07:45:30.202Z,12.9
2022-09-23T07:46:33.639Z,12.9
2022-09-23T07:47:36.383Z,12.9
2022-09-23T07:48:39.466Z,13
2022-09-23T07:49:42.608Z,13
2022-09-23T07:50:45.955Z,13.1
2022-09-23T07:51:49.680Z,13.1
2022-09-23T07:52:52.842Z,13.1
2022-09-23T07:53:56.271Z,13.2
2022-09-23T07:54:59.155Z,13.2
2022-09-23T07:56:01.988Z,13.3
2022-09-23T07:57:05.358Z,13.3
2022-09-23T07:58:09.283Z,13.4
2022-09-23T07:59:12.284Z,13.4
2022-09-23T08:00:15.071Z,13.5
2022-09-23T08:01:18.680Z,13.6
2022-09-23T08:02:22.489Z,13.6
2022-09-23T08:03:25.667Z,13.6
2022-09-23T08:04:28.412Z,13.6
2022-09-23T08:05:31.840Z,13.6
2022-09-23T08:06:34.291Z,13.7
2022-09-23T08:07:37.165Z,13.7
2022-09-23T08:08:39.688Z,13.7
2022-09-23T08:09:42.951Z,13.8
2022-09-23T08:10:46.016Z,13.8
2022-09-23T08:11:49.205Z,13.8
2022-09-23T08:12:52.103Z,13.9
2022-09-23T08:13:55.986Z,13.9
2022-09-23T08:14:59.090Z,13.9
2022-09-23T08:16:02.125Z,14
2022-09-23T08:17:06.435Z,14
2022-09-23T08:18:09.279Z,14
2022-09-23T08:19:11.826Z,14
2022-09-23T08:20:14.721Z,14
2022-09-23T08:21:17.870Z,14.1
2022-09-23T08:22:21.113Z,14.1
2022-09-23T08:23:24.206Z,14.1
2022-09-23T08:24:27.291Z,14.2
2022-09-23T08:25:35.308Z,14.2
2022-09-23T08:26:38.975Z,14.2
2022-09-23T08:27:42.379Z,14.2
2022-09-23T08:28:45.739Z,14.3
2022-09-23T08:29:49.764Z,14.3
2022-09-23T08:30:53.254Z,14.4
2022-09-23T08:31:56.160Z,14.4
2022-09-23T08:32:58.961Z,14.4
2022-09-23T08:34:01.832Z,14.4
2022-09-23T08:35:05.685Z,14.5
2022-09-23T08:36:08.238Z,14.5
2022-09-23T08:37:11.466Z,14.5
2022-09-23T08:38:14.920Z,14.6
2022-09-23T08:39:17.803Z,14.6
2022-09-23T08:40:21.396Z,14.6
2022-09-23T08:41:25.539Z,14.7
2022-09-23T08:42:28.958Z,14.7
2022-09-23T08:43:31.839Z,14.7
2022-09-23T08:44:34.183Z,14.7
2022-09-23T08:45:37.863Z,14.8
2022-09-23T08:46:41.581Z,14.8
2022-09-23T08:47:44.670Z,14.8
2022-09-23T08:48:47.838Z,14.9
2022-09-23T08:49:50.720Z,14.9
2022-09-23T08:50:53.613Z,14.9
2022-09-23T08:51:56.489Z,14.9
2022-09-23T08:53:00.157Z,14.9
2022-09-23T08:54:03.172Z,14.9
2022-09-23T08:55:06.515Z,15
2022-09-23T08:56:09.860Z,15
2022-09-23T08:57:12.401Z,15.1
2022-09-23T08:58:27.058Z,15.1
2022-09-23T08:59:30.816Z,15.1
2022-09-23T09:00:33.141Z,15.2
2022-09-23T09:01:37.541Z,15.3
2022-09-23T09:02:40.702Z,15.3
2022-09-23T09:03:44.294Z,15.4
2022-09-23T09:04:47.484Z,15.5
2022-09-23T09:05:55.261Z,15.5
2022-09-23T09:07:37.251Z,15.6
2022-09-23T09:08:41.581Z,15.6
2022-09-23T09:09:45.097Z,15.7
2022-09-23T09:10:47.891Z,15.7
2022-09-23T09:11:50.771Z,15.8
2022-09-23T09:12:53.596Z,15.8
2022-09-23T09:13:56.670Z,15.9
2022-09-23T09:15:00.116Z,15.9
2022-09-23T09:16:03.602Z,16
2022-09-23T09:17:07.791Z,16
2022-09-23T09:18:11.442Z,16
2022-09-23T09:19:14.916Z,16.1
2022-09-23T09:20:18.109Z,16.1
2022-09-23T09:21:21.444Z,16.2
2022-09-23T09:22:24.646Z,16.2
2022-09-23T09:23:28.019Z,16.3
2022-09-23T09:24:31.683Z,16.3
2022-09-23T09:25:35.399Z,16.3
2022-09-23T09:26:38.028Z,16.4
2022-09-23T09:27:40.535Z,16.5
2022-09-23T09:28:43.338Z,16.5
2022-09-23T09:29:49.530Z,16.5
2022-09-23T09:30:53.218Z,16.6
2022-09-23T09:31:56.519Z,16.7
2022-09-23T09:33:02.184Z,16.8
2022-09-23T09:34:04.589Z,16.9
2022-09-23T09:35:08.043Z,17
2022-09-23T09:36:10.834Z,17
2022-09-23T09:37:13.972Z,17.1
2022-09-23T09:38:16.965Z,17.1
2022-09-23T09:39:26.808Z,17.2
2022-09-23T09:40:30.135Z,17.3
2022-09-23T09:41:33.238Z,17.3
2022-09-23T09:42:35.558Z,17.4
2022-09-23T09:43:44.857Z,17.4
2022-09-23T09:44:47.386Z,17.5
2022-09-23T09:45:58.567Z,17.6
2022-09-23T09:47:01.044Z,17.7
2022-09-23T09:48:05.548Z,17.7
2022-09-23T09:49:08.778Z,17.9
2022-09-23T09:50:11.464Z,18
2022-09-23T09:51:14.816Z,18.1
2022-09-23T09:52:17.609Z,18.2
2022-09-23T09:53:20.072Z,18.3
2022-09-23T09:54:23.792Z,18.4
2022-09-23T09:55:26.235Z,18.6
2022-09-23T09:56:29.025Z,18.7
2022-09-23T09:57:36.862Z,18.8
2022-09-23T09:58:40.590Z,18.9
2022-09-23T09:59:43.399Z,19
2022-09-23T10:00:46.934Z,19
2022-09-23T10:01:50.364Z,19.1
2022-09-23T10:02:54.283Z,19.1
2022-09-23T10:04:00.703Z,19.1
2022-09-23T10:05:03.889Z,19.1
2022-09-23T10:06:06.573Z,19.1
2022-09-23T10:07:09.858Z,19.1
2022-09-23T10:08:12.734Z,19.1
2022-09-23T10:09:15.827Z,19.1
2022-09-23T10:10:34.121Z,19.1
2022-09-23T10:11:37.701Z,19.2
2022-09-23T10:12:40.801Z,19.2
2022-09-23T10:13:44.253Z,19.2
2022-09-23T10:14:46.770Z,19.3
2022-09-23T10:15:49.480Z,19.3
2022-09-23T10:16:52.768Z,19.4
2022-09-23T10:17:55.931Z,19.5
2022-09-23T10:18:59.091Z,19.6
2022-09-23T10:20:03.529Z,19.7
2022-09-23T10:21:07.281Z,19.8
2022-09-23T10:22:10.502Z,19.9
2022-09-23T10:23:13.369Z,19.9
2022-09-23T10:24:16.088Z,20
2022-09-23T10:25:19.831Z,20.1
2022-09-23T10:26:22.910Z,20.2
2022-09-23T10:27:25.970Z,20.3
2022-09-23T10:28:29.583Z,20.4
2022-09-23T10:29:32.212Z,20.5
2022-09-23T10:30:34.934Z,20.6
2022-09-23T10:31:38.032Z,20.7
2022-09-23T10:32:41.106Z,20.7
2022-09-23T10:33:44.241Z,20.8
2022-09-23T10:34:47.600Z,20.8
2022-09-23T10:35:51.740Z,20.9
2022-09-23T10:36:54.473Z,20.9
2022-09-23T10:37:57.934Z,21
2022-09-23T10:39:01.217Z,21.1
2022-09-23T10:40:05.227Z,21.1
2022-09-23T10:42:12.078Z,21.2
2022-09-23T10:43:14.884Z,21.3
2022-09-23T10:44:17.757Z,21.3
2022-09-23T10:45:21.130Z,21.4
2022-09-23T10:46:25.081Z,21.5
2022-09-23T10:47:28.803Z,21.6
2022-09-23T10:48:31.880Z,21.7
2022-09-23T10:49:35.217Z,21.8
2022-09-23T10:50:38.499Z,21.8
2022-09-23T10:51:42.065Z,22
2022-09-23T10:52:45.446Z,22.1
2022-09-23T10:53:48.444Z,22.2
2022-09-23T10:54:51.436Z,22.3
2022-09-23T10:55:54.788Z,22.3
2022-09-23T10:56:59.242Z,22.4
2022-09-23T10:58:02.574Z,22.5
2022-09-23T10:59:05.651Z,22.5
2022-09-23T11:00:08.527Z,22.6
2022-09-23T11:01:12.439Z,22.7
2022-09-23T11:02:15.886Z,22.8
2022-09-23T11:03:19.048Z,22.9
2022-09-23T11:04:22.356Z,23
2022-09-23T11:05:25.667Z,23.1
2022-09-23T11:06:29.312Z,23.2
2022-09-23T11:07:38.072Z,23.2
2022-09-23T11:08:41.158Z,23.4
2022-09-23T11:09:43.941Z,23.5
2022-09-23T11:10:48.034Z,23.6
2022-09-23T11:11:50.926Z,23.7
2022-09-23T11:12:53.643Z,23.7
2022-09-23T11:13:56.600Z,23.7
2022-09-23T11:14:59.310Z,23.8
2022-09-23T11:16:02.181Z,23.7
2022-09-23T11:17:05.489Z,23.8
2022-09-23T11:18:08.985Z,23.8
2022-09-23T11:19:12.721Z,23.9
2022-09-23T11:20:16.160Z,23.9
2022-09-23T11:21:19.269Z,24.1
2022-09-23T11:22:23.065Z,24.2
2022-09-23T11:23:26.333Z,24.2
2022-09-23T11:24:29.337Z,24.3
2022-09-23T11:25:32.697Z,24.2
2022-09-23T11:26:35.704Z,24.2
2022-09-23T11:27:38.903Z,24.2
2022-09-23T11:28:42.254Z,24.2
2022-09-23T11:29:45.339Z,24.2
2022-09-23T11:30:48.350Z,24.1
2022-09-23T11:31:51.095Z,24.1
2022-09-23T11:33:04.650Z,24.1
2022-09-23T11:34:08.763Z,24
2022-09-23T11:35:12.087Z,24
2022-09-23T11:36:15.242Z,24
2022-09-23T11:37:18.475Z,24
2022-09-23T11:38:21.566Z,24.1
2022-09-23T11:39:25.687Z,24.1
2022-09-23T11:40:29.249Z,24.1
2022-09-23T11:41:33.031Z,24.1
2022-09-23T11:42:35.466Z,24.1
2022-09-23T11:43:38.529Z,24.1
2022-09-23T11:44:41.121Z,24.2
2022-09-23T11:45:43.717Z,24.2
2022-09-23T11:46:46.636Z,24.2
2022-09-23T11:47:49.167Z,24.2
2022-09-23T11:48:52.317Z,24.2
2022-09-23T11:49:55.514Z,24.3
2022-09-23T11:50:58.745Z,24.3
2022-09-23T11:52:02.171Z,24.3
2022-09-23T11:53:05.039Z,24.4
2022-09-23T11:54:08.274Z,24.4
2022-09-23T11:55:23.835Z,24.5
2022-09-23T11:56:40.358Z,24.4
2022-09-23T11:57:51.627Z,24.4
2022-09-23T11:59:04.283Z,24.4
2022-09-23T12:00:08.500Z,24.5
2022-09-23T12:01:11.922Z,24.5
2022-09-23T12:02:29.782Z,24.5
2022-09-23T12:03:45.775Z,24.6
2022-09-23T12:04:59.299Z,24.6
2022-09-23T12:06:03.849Z,24.7
2022-09-23T12:07:06.923Z,24.7
2022-09-23T12:08:09.995Z,24.7
2022-09-23T12:09:13.265Z,24.7
2022-09-23T12:10:17.041Z,24.8
2022-09-23T12:11:20.145Z,24.7
2022-09-23T12:12:27.943Z,24.8
2022-09-23T12:13:30.937Z,24.8
2022-09-23T12:14:34.591Z,24.8
2022-09-23T12:15:38.016Z,24.8
2022-09-23T12:16:41.703Z,24.8
2022-09-23T12:17:45.003Z,24.8
2022-09-23T12:18:47.956Z,24.8
2022-09-23T12:19:51.134Z,24.8
2022-09-23T12:20:54.570Z,24.7
2022-09-23T12:21:57.364Z,24.7
2022-09-23T12:23:00.798Z,24.6
2022-09-23T12:24:04.521Z,24.5
2022-09-23T12:25:08.282Z,24.4
2022-09-23T12:26:11.519Z,24.3
2022-09-23T12:27:14.617Z,24.2
2022-09-23T12:28:18.086Z,24.1
2022-09-23T12:29:20.828Z,24
2022-09-23T12:30:24.340Z,23.9
2022-09-23T12:31:27.318Z,23.8
2022-09-23T12:32:30.476Z,23.7
2022-09-23T12:33:33.633Z,23.6
2022-09-23T12:34:36.530Z,23.6
2022-09-23T12:35:39.054Z,23.5
2022-09-23T12:36:42.558Z,23.5
2022-09-23T12:37:46.332Z,23.4
2022-09-23T12:38:49.283Z,23.3
2022-09-23T12:39:52.350Z,23.3
2022-09-23T12:40:56.117Z,23.2
2022-09-23T12:42:00.248Z,23.1
2022-09-23T12:43:04.103Z,23
2022-09-23T12:44:07.799Z,23
2022-09-23T12:45:10.321Z,22.9
2022-09-23T12:46:13.809Z,22.9
2022-09-23T12:47:16.781Z,22.8
2022-09-23T12:48:20.789Z,22.7
2022-09-23T12:49:24.061Z,22.6
2022-09-23T12:50:26.857Z,22.6
2022-09-23T12:51:29.381Z,22.5
2022-09-23T12:52:32.628Z,22.4
2022-09-23T12:53:35.720Z,22.4
2022-09-23T12:54:38.316Z,22.4
2022-09-23T12:55:41.429Z,22.3
2022-09-23T12:56:44.789Z,22.3
2022-09-23T12:57:48.272Z,22.3
2022-09-23T12:58:51.650Z,22.4
2022-09-23T12:59:54.751Z,22.4
2022-09-23T13:00:58.975Z,22.3
2022-09-23T13:02:03.445Z,22.3
2022-09-23T13:03:06.456Z,22.4
2022-09-23T13:04:09.068Z,22.3
2022-09-23T13:05:13.091Z,22.3
2022-09-23T13:06:15.639Z,22.3
2022-09-23T13:07:18.271Z,22.3
2022-09-23T13:08:21.456Z,22.2
2022-09-23T13:09:24.913Z,22.2
2022-09-23T13:10:27.796Z,22.2
2022-09-23T13:11:30.872Z,22.2
2022-09-23T13:12:34.552Z,22.1
2022-09-23T13:13:38.344Z,22.1
2022-09-23T13:14:41.698Z,22.1
2022-09-23T13:15:44.807Z,22
2022-09-23T13:16:48.355Z,22
2022-09-23T13:17:51.488Z,22
2022-09-23T13:18:54.513Z,21.9
2022-09-23T13:19:57.414Z,21.8
2022-09-23T13:21:00.839Z,21.8
2022-09-23T13:22:04.199Z,21.7
2022-09-23T13:23:06.710Z,21.7
2022-09-23T13:24:10.227Z,21.7
2022-09-23T13:25:13.345Z,21.7
2022-09-23T13:26:16.337Z,21.7
2022-09-23T13:27:19.526Z,21.8
2022-09-23T13:28:22.486Z,21.8
2022-09-23T13:29:26.030Z,21.8
2022-09-23T13:30:28.305Z,21.8
2022-09-23T13:31:31.977Z,21.7
2022-09-23T13:32:36.566Z,21.7
2022-09-23T13:33:40.403Z,21.7
2022-09-23T13:34:43.484Z,21.7
2022-09-23T13:35:46.718Z,21.7
2022-09-23T13:36:48.957Z,21.7
2022-09-23T13:37:51.500Z,21.6
2022-09-23T13:38:54.756Z,21.6
2022-09-23T13:39:57.512Z,21.6
2022-09-23T13:41:00.389Z,21.6
2022-09-23T13:42:02.896Z,21.6
2022-09-23T13:43:05.794Z,21.5
2022-09-23T13:44:09.371Z,21.5
2022-09-23T13:45:13.297Z,21.5
2022-09-23T13:46:16.744Z,21.4
2022-09-23T13:47:19.900Z,21.4
2022-09-23T13:48:22.930Z,21.4
2022-09-23T13:49:25.997Z,21.4
2022-09-23T13:50:35.805Z,21.4
2022-09-23T13:51:39.232Z,21.4
2022-09-23T13:52:42.600Z,21.4
2022-09-23T13:53:45.602Z,21.4
2022-09-23T13:54:48.669Z,21.4
2022-09-23T13:55:53.557Z,21.4
2022-09-23T13:56:57.300Z,21.4
2022-09-23T13:58:00.277Z,21.5
2022-09-23T13:59:03.554Z,21.5
2022-09-23T14:00:06.835Z,21.5
2022-09-23T14:01:11.406Z,21.5
2022-09-23T14:02:14.983Z,21.5
2022-09-23T14:03:19.026Z,21.5
2022-09-23T14:04:22.372Z,21.5
2022-09-23T14:05:24.815Z,21.5
2022-09-23T14:06:28.617Z,21.4
2022-09-23T14:07:31.998Z,21.4
2022-09-23T14:08:35.260Z,21.4
2022-09-23T14:09:37.969Z,21.4
2022-09-23T14:10:40.832Z,21.3
2022-09-23T14:11:44.283Z,21.3
2022-09-23T14:12:47.974Z,21.3